Time;durP1;ratioP1;P1;durP2;ratioP2;P2;SDS_P1;SDS_P2;PMS_P1;PMS_P2;Temp;Humidity;BMP_temperature;BMP_pressure;BME280_temperature;BME280_humidity;BME280_pressure;Samples;Min_cycle;Max_cycle;Signal;HPM_P1;HPM_P2
2022/11/26 00:00:17;;;;;;;;;69.00;55.00;;;;;-149.00;100.00;66333.84;5080771;28;46441;-82
2022/11/26 00:02:43;;;;;;;;;67.25;53.25;;;;;-149.00;100.00;66333.84;5080406;28;45454;-82
2022/11/26 00:05:12;;;;;;;;;59.50;50.00;;;;;-149.00;100.00;66333.84;5080878;28;45442;-82
2022/11/26 00:07:39;;;;;;;;;64.50;52.50;;;;;-149.00;100.00;66333.84;5080657;28;45493;-83
2022/11/26 00:10:19;;;;;;;;;69.50;55.50;;;;;-149.00;100.00;66333.84;5080733;28;45543;-82
2022/11/26 00:12:45;;;;;;;;;70.00;55.00;;;;;-149.00;100.00;66333.84;5080916;28;45471;-82
2022/11/26 00:15:21;;;;;;;;;73.25;57.75;;;;;-149.00;100.00;66333.84;5080569;28;45418;-83
2022/11/26 00:17:49;;;;;;;;;71.75;57.25;;;;;-149.00;100.00;66333.84;5080527;28;45190;-82
2022/11/26 00:20:16;;;;;;;;;64.50;52.25;;;;;-149.00;100.00;66333.84;5080244;28;45316;-82
2022/11/26 00:22:49;;;;;;;;;69.75;55.00;;;;;-149.00;100.00;66333.84;5078974;28;45300;-82
2022/11/26 00:25:45;;;;;;;;;65.25;51.50;;;;;-149.00;100.00;66333.84;5079370;28;45194;-83
2022/11/26 00:28:22;;;;;;;;;68.25;54.25;;;;;-149.00;100.00;66333.84;5071906;27;45341;-82
2022/11/26 00:30:48;;;;;;;;;67.50;55.50;;;;;-149.00;100.00;66333.84;5079747;28;45427;-82
2022/11/26 00:33:13;;;;;;;;;71.75;57.25;;;;;-149.00;100.00;66333.84;5080251;28;45366;-82
2022/11/26 00:35:39;;;;;;;;;63.50;53.00;;;;;-149.00;100.00;66333.84;5080140;28;45359;-82
2022/11/26 00:38:04;;;;;;;;;60.50;50.00;;;;;-149.00;100.00;66333.84;5080030;28;45445;-83
2022/11/26 00:40:32;;;;;;;;;64.75;54.00;;;;;-149.00;100.00;66333.84;5061962;28;47371;-83
2022/11/26 00:42:58;;;;;;;;;72.25;58.00;;;;;-149.00;100.00;66333.84;5079932;28;45262;-82
2022/11/26 00:45:26;;;;;;;;;72.00;58.75;;;;;-149.00;100.00;66333.84;5080324;28;45318;-83
2022/11/26 00:47:52;;;;;;;;;70.25;56.25;;;;;-149.00;100.00;66333.84;5078421;28;46035;-83
2022/11/26 00:50:20;;;;;;;;;70.00;57.00;;;;;-149.00;100.00;66333.84;5079979;28;45367;-82
2022/11/26 00:52:48;;;;;;;;;74.25;58.50;;;;;-149.00;100.00;66333.84;5061643;28;46317;-82
2022/11/26 00:55:30;;;;;;;;;72.00;58.50;;;;;-149.00;100.00;66333.84;5078374;28;45285;-83
2022/11/26 00:57:55;;;;;;;;;72.25;57.25;;;;;-149.00;100.00;66333.84;5079773;28;45497;-82
2022/11/26 01:00:24;;;;;;;;;70.50;56.00;;;;;-149.00;100.00;66333.84;5079463;28;46525;-83
2022/11/26 01:02:49;;;;;;;;;73.75;58.75;;;;;-149.00;100.00;66333.84;5079767;28;45326;-83
2022/11/26 01:05:16;;;;;;;;;71.25;57.25;;;;;-149.00;100.00;66333.84;5079887;28;45827;-82
2022/11/26 01:07:42;;;;;;;;;72.75;57.25;;;;;-149.00;100.00;66333.84;5079471;28;45488;-82
2022/11/26 01:10:28;;;;;;;;;68.00;54.75;;;;;-149.00;100.00;66333.84;5078174;28;47146;-83
2022/11/26 01:12:54;;;;;;;;;63.00;51.50;;;;;-149.00;100.00;66333.84;5078377;28;45883;-83
2022/11/26 01:15:23;;;;;;;;;66.25;54.25;;;;;-149.00;100.00;66333.84;5079488;28;45451;-83
2022/11/26 01:17:49;;;;;;;;;60.00;50.25;;;;;-149.00;100.00;66333.84;5078181;28;47031;-82
2022/11/26 01:20:25;;;;;;;;;62.00;52.00;;;;;-149.00;100.00;66333.84;5079450;28;45435;-82
2022/11/26 01:22:52;;;;;;;;;60.75;49.50;;;;;-149.00;100.00;66333.84;5078100;28;45454;-82
2022/11/26 01:25:19;;;;;;;;;61.00;49.25;;;;;-149.00;100.00;66333.84;5079395;28;45418;-82
2022/11/26 01:27:45;;;;;;;;;63.25;51.75;;;;;-149.00;100.00;66333.84;5078095;28;47498;-82
2022/11/26 01:30:22;;;;;;;;;63.00;51.25;;;;;-149.00;100.00;66333.84;5061132;28;47060;-82
2022/11/26 01:32:48;;;;;;;;;61.50;49.75;;;;;-149.00;100.00;66333.84;5079125;28;45326;-82
2022/11/26 01:35:15;;;;;;;;;60.50;49.75;;;;;-149.00;100.00;66333.84;5079457;28;45577;-82
2022/11/26 01:37:42;;;;;;;;;68.25;56.00;;;;;-149.00;100.00;66333.84;5081449;28;45332;-82
2022/11/26 01:40:22;;;;;;;;;66.50;55.00;;;;;-149.00;100.00;66333.84;5071806;28;45341;-82
2022/11/26 01:42:51;;;;;;;;;67.50;53.75;;;;;-149.00;100.00;66333.84;5084701;28;45280;-82
2022/11/26 01:45:19;;;;;;;;;56.00;45.25;;;;;-149.00;100.00;66333.84;5086468;28;45411;-82
2022/11/26 01:47:47;;;;;;;;;60.75;50.00;;;;;-149.00;100.00;66333.84;5081007;28;46183;-82
2022/11/26 01:50:28;;;;;;;;;70.00;55.75;;;;;-149.00;100.00;66333.84;5083553;28;47700;-82
2022/11/26 01:53:10;;;;;;;;;67.25;54.00;;;;;-149.00;100.00;66333.84;5067641;28;45841;-82
2022/11/26 01:55:43;;;;;;;;;67.00;53.50;;;;;-149.00;100.00;66333.84;5086213;28;45605;-83
2022/11/26 01:58:14;;;;;;;;;63.25;51.25;;;;;-149.00;100.00;66333.84;5085716;28;45506;-82
2022/11/26 02:00:39;;;;;;;;;61.75;51.75;;;;;-149.00;100.00;66333.84;5067291;28;48185;-82
2022/11/26 02:03:06;;;;;;;;;63.75;52.00;;;;;-149.00;100.00;66333.84;5084330;28;45664;-82
2022/11/26 02:05:40;;;;;;;;;60.25;48.00;;;;;-149.00;100.00;66333.84;5084454;28;45386;-82
2022/11/26 02:08:07;;;;;;;;;55.50;46.25;;;;;-149.00;100.00;66333.84;5085629;28;45344;-82
2022/11/26 02:10:33;;;;;;;;;58.25;49.50;;;;;-149.00;100.00;66333.84;5085516;28;46102;-82
2022/11/26 02:12:59;;;;;;;;;61.00;51.00;;;;;-149.00;100.00;66333.84;5085592;28;45279;-82
2022/11/26 02:15:28;;;;;;;;;58.50;46.75;;;;;-149.00;100.00;66333.84;5085735;28;45419;-83
2022/11/26 02:18:00;;;;;;;;;39.00;34.00;;;;;-149.00;100.00;66333.84;5085472;28;45520;-83
2022/11/26 02:20:39;;;;;;;;;51.00;43.00;;;;;-149.00;100.00;66333.84;5071358;28;46151;-83
2022/11/26 02:23:56;;;;;;;;;49.50;41.75;;;;;-149.00;100.00;66333.84;5085593;28;45407;-82
2022/11/26 02:26:45;;;;;;;;;51.25;44.00;;;;;-149.00;100.00;66333.84;5030342;28;45340;-82
2022/11/26 02:30:12;;;;;;;;;50.00;43.00;;;;;-149.00;100.00;66333.84;5082541;28;45406;-83
2022/11/26 02:33:00;;;;;;;;;48.25;42.00;;;;;-149.00;100.00;66333.84;5034560;28;45479;-82
2022/11/26 02:35:40;;;;;;;;;54.75;44.25;;;;;-149.00;100.00;66333.84;5080672;28;45770;-82
2022/11/26 02:38:23;;;;;;;;;48.00;42.25;;;;;-149.00;100.00;66333.84;5082367;28;45407;-82
2022/11/26 02:40:49;;;;;;;;;47.50;38.25;;;;;-149.00;100.00;66333.84;5085319;28;45256;-82
2022/11/26 02:43:15;;;;;;;;;48.00;39.50;;;;;-149.00;100.00;66333.84;5085214;28;45589;-82
2022/11/26 02:45:45;;;;;;;;;45.25;40.00;;;;;-149.00;100.00;66333.84;5085272;28;45312;-82
2022/11/26 02:48:21;;;;;;;;;56.50;47.25;;;;;-149.00;100.00;66333.84;5084945;28;45347;-82
2022/11/26 02:50:52;;;;;;;;;50.00;42.25;;;;;-149.00;100.00;66333.84;5080928;28;45708;-82
2022/11/26 02:53:21;;;;;;;;;54.25;45.25;;;;;-149.00;100.00;66333.84;5081304;28;45405;-82
2022/11/26 02:55:53;;;;;;;;;57.25;46.50;;;;;-149.00;100.00;66333.84;5081731;28;45508;-82
2022/11/26 02:58:19;;;;;;;;;52.00;44.25;;;;;-149.00;100.00;66333.84;5080466;28;45369;-82
2022/11/26 03:00:47;;;;;;;;;48.75;42.25;;;;;-149.00;100.00;66333.84;5081551;28;45345;-82
2022/11/26 03:03:27;;;;;;;;;57.75;46.50;;;;;-149.00;100.00;66333.84;5081259;28;45193;-82
2022/11/26 03:05:57;;;;;;;;;54.50;45.00;;;;;-149.00;100.00;66333.84;5081507;28;45319;-82
2022/11/26 03:08:25;;;;;;;;;55.50;45.00;;;;;-149.00;100.00;66333.84;5081367;28;45245;-83
2022/11/26 03:10:50;;;;;;;;;56.50;44.75;;;;;-149.00;100.00;66333.84;5081452;28;45570;-82
2022/11/26 03:13:16;;;;;;;;;51.50;43.25;;;;;-149.00;100.00;66333.84;5081248;28;46496;-82
2022/11/26 03:15:41;;;;;;;;;50.50;42.75;;;;;-149.00;100.00;66333.84;5079765;28;45745;-82
2022/11/26 03:18:06;;;;;;;;;56.00;47.75;;;;;-149.00;100.00;66333.84;5063247;28;45441;-81
2022/11/26 03:20:32;;;;;;;;;52.00;43.75;;;;;-149.00;100.00;66333.84;5081293;28;45339;-82
2022/11/26 03:22:57;;;;;;;;;59.00;47.50;;;;;-149.00;100.00;66333.84;5081292;28;45417;-82
2022/11/26 03:25:25;;;;;;;;;59.00;48.00;;;;;-149.00;100.00;66333.84;5081241;28;45272;-81
2022/11/26 03:27:51;;;;;;;;;53.25;45.75;;;;;-149.00;100.00;66333.84;5081481;28;45237;-82
2022/11/26 03:30:16;;;;;;;;;51.00;41.50;;;;;-149.00;100.00;66333.84;5081224;28;45205;-83
2022/11/26 03:32:41;;;;;;;;;58.25;49.00;;;;;-149.00;100.00;66333.84;5079495;28;48130;-82
2022/11/26 03:35:07;;;;;;;;;54.50;45.75;;;;;-149.00;100.00;66333.84;5081292;28;45367;-82
2022/11/26 03:37:32;;;;;;;;;55.25;46.00;;;;;-149.00;100.00;66333.84;5081217;28;45276;-82
2022/11/26 03:39:58;;;;;;;;;57.00;45.75;;;;;-149.00;100.00;66333.84;5062656;28;47149;-82
2022/11/26 03:42:23;;;;;;;;;60.25;48.75;;;;;-149.00;100.00;66333.84;5081047;28;45377;-81
2022/11/26 03:44:48;;;;;;;;;44.25;39.50;;;;;-149.00;100.00;66333.84;5080893;28;45309;-82
2022/11/26 03:47:14;;;;;;;;;53.00;44.25;;;;;-149.00;100.00;66333.84;5081010;28;45518;-82
2022/11/26 03:49:39;;;;;;;;;52.00;44.50;;;;;-149.00;100.00;66333.84;5080797;28;45375;-82
2022/11/26 03:52:04;;;;;;;;;63.25;50.75;;;;;-149.00;100.00;66333.84;5080623;28;48701;-82
2022/11/26 03:54:30;;;;;;;;;61.00;50.25;;;;;-149.00;100.00;66333.84;5079524;28;45390;-82
2022/11/26 03:56:55;;;;;;;;;55.25;45.25;;;;;-149.00;100.00;66333.84;5062682;28;45399;-82
2022/11/26 03:59:20;;;;;;;;;54.50;43.25;;;;;-149.00;100.00;66333.84;5081001;28;45370;-82
2022/11/26 04:01:46;;;;;;;;;47.25;41.00;;;;;-149.00;100.00;66333.84;5061539;28;48627;-82
2022/11/26 04:04:11;;;;;;;;;50.25;43.25;;;;;-149.00;100.00;66333.84;5080740;28;45406;-82
2022/11/26 04:06:36;;;;;;;;;55.75;43.25;;;;;-149.00;100.00;66333.84;5080322;28;52919;-82
2022/11/26 04:09:02;;;;;;;;;53.50;44.25;;;;;-149.00;100.00;66333.84;5079085;28;46312;-81
2022/11/26 04:11:28;;;;;;;;;52.25;43.00;;;;;-149.00;100.00;66333.84;5075978;28;47345;-82
2022/11/26 04:13:53;;;;;;;;;52.00;44.00;;;;;-149.00;100.00;66333.84;5076830;28;49244;-82
2022/11/26 04:16:19;;;;;;;;;47.00;40.00;;;;;-149.00;100.00;66333.84;5062445;28;45261;-82
2022/11/26 04:18:45;;;;;;;;;44.50;40.00;;;;;-149.00;100.00;66333.84;5080149;28;45241;-83
2022/11/26 04:21:10;;;;;;;;;34.75;29.75;;;;;-149.00;100.00;66333.84;5062205;28;47334;-82
2022/11/26 04:23:35;;;;;;;;;47.25;40.25;;;;;-149.00;100.00;66333.84;5078963;28;45342;-82
2022/11/26 04:26:01;;;;;;;;;47.25;39.75;;;;;-149.00;100.00;66333.84;5079964;28;45386;-82
2022/11/26 04:28:26;;;;;;;;;49.00;40.00;;;;;-149.00;100.00;66333.84;5080047;28;45292;-82
2022/11/26 04:30:52;;;;;;;;;42.00;38.25;;;;;-149.00;100.00;66333.84;5078644;28;47022;-82
2022/11/26 04:33:17;;;;;;;;;49.25;41.00;;;;;-149.00;100.00;66333.84;5080249;28;46678;-82
2022/11/26 04:35:42;;;;;;;;;49.50;42.50;;;;;-149.00;100.00;66333.84;5062038;28;45789;-82
2022/11/26 04:38:08;;;;;;;;;42.25;38.25;;;;;-149.00;100.00;66333.84;5079989;28;45256;-82
2022/11/26 04:40:33;;;;;;;;;52.75;40.75;;;;;-149.00;100.00;66333.84;5078881;28;47186;-82
2022/11/26 04:42:59;;;;;;;;;43.75;37.00;;;;;-149.00;100.00;66333.84;5079913;28;45416;-82
2022/11/26 04:45:24;;;;;;;;;45.25;39.00;;;;;-149.00;100.00;66333.84;5061929;28;45382;-82
2022/11/26 04:47:49;;;;;;;;;39.75;36.00;;;;;-149.00;100.00;66333.84;5079810;28;45474;-82
2022/11/26 04:50:15;;;;;;;;;40.50;35.50;;;;;-149.00;100.00;66333.84;5079741;28;46382;-83
2022/11/26 04:52:40;;;;;;;;;42.50;37.50;;;;;-149.00;100.00;66333.84;5079949;28;45423;-82
2022/11/26 04:55:06;;;;;;;;;34.25;31.75;;;;;-149.00;100.00;66333.84;5080027;28;45365;-82
2022/11/26 04:57:31;;;;;;;;;39.00;36.00;;;;;-149.00;100.00;66333.84;5079968;28;46435;-82
2022/11/26 04:59:56;;;;;;;;;39.50;36.75;;;;;-149.00;100.00;66333.84;5079579;28;46271;-82
2022/11/26 05:02:25;;;;;;;;;44.25;37.75;;;;;-149.00;100.00;66333.84;5079359;28;47346;-82
2022/11/26 05:04:50;;;;;;;;;35.25;34.25;;;;;-149.00;100.00;66333.84;5079797;28;45425;-82
2022/11/26 05:07:16;;;;;;;;;34.50;31.50;;;;;-149.00;100.00;66333.84;5079524;28;45596;-82
2022/11/26 05:09:41;;;;;;;;;43.50;37.50;;;;;-149.00;100.00;66333.84;5079631;28;46092;-82
2022/11/26 05:12:06;;;;;;;;;38.50;36.50;;;;;-149.00;100.00;66333.84;5077344;28;45161;-82
2022/11/26 05:14:32;;;;;;;;;30.50;29.75;;;;;-149.00;100.00;66333.84;5061536;28;45419;-82
2022/11/26 05:16:57;;;;;;;;;34.50;32.00;;;;;-149.00;100.00;66333.84;5078053;28;45921;-82
2022/11/26 05:19:22;;;;;;;;;32.50;32.00;;;;;-149.00;100.00;66333.84;5079814;28;46026;-82
2022/11/26 05:21:48;;;;;;;;;44.00;38.00;;;;;-149.00;100.00;66333.84;5079557;28;45344;-82
2022/11/26 05:24:13;;;;;;;;;43.50;37.50;;;;;-149.00;100.00;66333.84;5079465;28;45453;-82
2022/11/26 05:26:38;;;;;;;;;36.50;34.75;;;;;-149.00;100.00;66333.84;5061131;28;45851;-82
2022/11/26 05:29:04;;;;;;;;;40.00;37.25;;;;;-149.00;100.00;66333.84;5079014;28;45300;-82
2022/11/26 05:31:29;;;;;;;;;39.00;36.00;;;;;-149.00;100.00;66333.84;5078898;28;45257;-82
2022/11/26 05:33:55;;;;;;;;;40.50;37.00;;;;;-149.00;100.00;66333.84;5079381;28;45492;-82
2022/11/26 05:36:20;;;;;;;;;43.00;38.50;;;;;-149.00;100.00;66333.84;5079398;28;45549;-82
2022/11/26 05:38:45;;;;;;;;;47.75;40.75;;;;;-149.00;100.00;66333.84;5079286;28;46204;-82
2022/11/26 05:41:11;;;;;;;;;53.00;45.25;;;;;-149.00;100.00;66333.84;5078992;28;45380;-82
2022/11/26 05:43:36;;;;;;;;;51.75;44.25;;;;;-149.00;100.00;66333.84;5079481;28;45432;-82
2022/11/26 05:46:04;;;;;;;;;49.00;41.25;;;;;-149.00;100.00;66333.84;5079369;28;45509;-82
2022/11/26 05:48:29;;;;;;;;;47.25;41.25;;;;;-149.00;100.00;66333.84;5078513;28;46161;-82
2022/11/26 05:50:58;;;;;;;;;54.50;45.00;;;;;-149.00;100.00;66333.84;5078930;28;45403;-82
2022/11/26 05:53:24;;;;;;;;;64.50;53.25;;;;;-149.00;100.00;66333.84;5077840;28;45367;-82
2022/11/26 05:55:49;;;;;;;;;57.00;48.50;;;;;-149.00;100.00;66333.84;5079058;28;45453;-82
2022/11/26 05:58:15;;;;;;;;;61.50;51.25;;;;;-149.00;100.00;66333.84;5079189;28;46030;-82
2022/11/26 06:00:40;;;;;;;;;54.50;46.00;;;;;-149.00;100.00;66333.84;5077763;28;45375;-82
2022/11/26 06:03:05;;;;;;;;;44.00;38.00;;;;;-149.00;100.00;66333.84;5079122;28;45228;-82
2022/11/26 06:05:31;;;;;;;;;45.50;40.25;;;;;-149.00;100.00;66333.84;5078592;28;55875;-82
2022/11/26 06:07:56;;;;;;;;;45.00;38.75;;;;;-149.00;100.00;66333.84;5078500;28;46903;-82
2022/11/26 06:10:21;;;;;;;;;49.50;38.00;;;;;-149.00;100.00;66333.84;5078761;28;45304;-82
2022/11/26 06:12:46;;;;;;;;;42.25;36.50;;;;;-149.00;100.00;66333.84;5079076;28;45393;-82
2022/11/26 06:15:12;;;;;;;;;44.00;37.25;;;;;-149.00;100.00;66333.84;5076118;28;47451;-82
2022/11/26 06:17:37;;;;;;;;;45.00;38.25;;;;;-149.00;100.00;66333.84;5060343;28;46981;-82
2022/11/26 06:20:04;;;;;;;;;41.25;37.00;;;;;-149.00;100.00;66333.84;5078012;27;45453;-82
2022/11/26 06:22:29;;;;;;;;;46.25;38.50;;;;;-149.00;100.00;66333.84;5078589;28;45413;-82
2022/11/26 06:24:54;;;;;;;;;45.75;39.50;;;;;-149.00;100.00;66333.84;5063114;28;47356;-82
2022/11/26 06:27:20;;;;;;;;;47.00;40.50;;;;;-149.00;100.00;66333.84;5082019;28;45284;-81
2022/11/26 06:29:45;;;;;;;;;48.50;40.25;;;;;-149.00;100.00;66333.84;5063849;28;45288;-82
2022/11/26 06:32:11;;;;;;;;;45.50;37.75;;;;;-149.00;100.00;66333.84;5081902;28;45501;-82
2022/11/26 06:34:36;;;;;;;;;44.50;39.75;;;;;-149.00;100.00;66333.84;5080851;27;47402;-83
2022/11/26 06:37:01;;;;;;;;;40.25;35.75;;;;;-149.00;100.00;66333.84;5081933;28;47418;-82
2022/11/26 06:39:27;;;;;;;;;39.00;35.25;;;;;-149.00;100.00;66333.84;5082378;28;45323;-81
2022/11/26 06:41:52;;;;;;;;;31.00;30.25;;;;;-149.00;100.00;66333.84;5083258;28;45434;-81
2022/11/26 06:44:17;;;;;;;;;41.75;35.00;;;;;-149.00;100.00;66333.84;5080646;28;46173;-81
2022/11/26 06:46:43;;;;;;;;;37.50;34.50;;;;;-149.00;100.00;66333.84;5081760;28;46824;-81
2022/11/26 06:49:09;;;;;;;;;33.75;33.00;;;;;-149.00;100.00;66333.84;5082234;28;50668;-81
2022/11/26 06:51:34;;;;;;;;;38.50;35.00;;;;;-149.00;100.00;66333.84;5082140;28;45281;-81
2022/11/26 06:54:00;;;;;;;;;38.25;34.25;;;;;-149.00;100.00;66333.84;5063674;28;46162;-81
2022/11/26 06:56:26;;;;;;;;;30.50;28.25;;;;;-149.00;100.00;66333.84;5081716;28;45390;-82
2022/11/26 06:58:53;;;;;;;;;25.25;24.00;;;;;-149.00;100.00;66333.84;5081435;28;45385;-81
2022/11/26 07:01:23;;;;;;;;;28.00;28.00;;;;;-149.00;100.00;66333.84;5081436;28;45414;-81
2022/11/26 07:03:48;;;;;;;;;30.00;28.25;;;;;-149.00;100.00;66333.84;5081169;28;46238;-81
2022/11/26 07:06:26;;;;;;;;;29.75;28.75;;;;;-149.00;100.00;66333.84;5080354;28;46807;-82
2022/11/26 07:08:53;;;;;;;;;30.75;29.00;;;;;-149.00;100.00;66333.84;5080547;27;45730;-83
2022/11/26 07:11:19;;;;;;;;;30.75;30.50;;;;;-149.00;100.00;66333.84;5080681;28;45310;-85
2022/11/26 07:13:45;;;;;;;;;27.33;25.33;;;;;-149.00;100.00;66333.84;5062400;28;45489;-78
2022/11/26 07:16:11;;;;;;;;;30.33;24.67;;;;;-149.00;100.00;66333.84;5068270;28;46057;-78
2022/11/26 07:18:36;;;;;;;;;21.33;18.67;;;;;-149.00;100.00;66333.84;5071997;28;45234;-78
2022/11/26 07:21:10;;;;;;;;;18.33;17.67;;;;;-149.00;100.00;66333.84;5081192;28;45222;-79
2022/11/26 07:23:37;;;;;;;;;18.00;17.00;;;;;-149.00;100.00;66333.84;5062289;28;46269;-79
2022/11/26 07:26:05;;;;;;;;;13.67;11.00;;;;;-149.00;100.00;66333.84;5080931;28;45351;-79
2022/11/26 07:28:30;;;;;;;;;16.67;15.33;;;;;-149.00;100.00;66333.84;5081266;28;45480;-79
2022/11/26 07:31:01;;;;;;;;;16.33;13.67;;;;;-149.00;100.00;66333.84;5080411;28;45379;-82
2022/11/26 07:33:26;;;;;;;;;27.50;26.50;;;;;-149.00;100.00;66333.84;5079634;28;45955;-83
2022/11/26 07:35:52;;;;;;;;;29.00;26.00;;;;;-149.00;100.00;66333.84;5080233;28;45416;-83
2022/11/26 07:38:17;;;;;;;;;22.67;21.33;;;;;-149.00;100.00;66333.84;5079355;28;47420;-81
2022/11/26 07:40:42;;;;;;;;;21.00;21.00;;;;;-149.00;100.00;66333.84;5081282;28;45331;-81
2022/11/26 07:43:08;;;;;;;;;25.00;22.67;;;;;-149.00;100.00;66333.84;5077910;28;45360;-81
2022/11/26 07:45:37;;;;;;;;;24.33;24.00;;;;;-149.00;100.00;66333.84;5073240;28;46111;-81
2022/11/26 07:48:03;;;;;;;;;29.50;24.75;;;;;-149.00;100.00;66333.84;5062647;28;45357;-80
2022/11/26 07:50:29;;;;;;;;;32.25;27.75;;;;;-149.00;100.00;66333.84;5059225;28;45329;-80
2022/11/26 07:52:55;;;;;;;;;40.75;35.25;;;;;-149.00;100.00;66333.84;5060952;28;47294;-80
2022/11/26 07:55:20;;;;;;;;;30.50;30.50;;;;;-149.00;100.00;66333.84;5074714;28;47079;-81
2022/11/26 07:57:45;;;;;;;;;32.50;28.25;;;;;-149.00;100.00;66333.84;5081114;28;45214;-80
2022/11/26 08:00:11;;;;;;;;;21.67;20.00;;;;;-149.00;100.00;66333.84;5080634;28;45256;-81
2022/11/26 08:02:37;;;;;;;;;18.67;16.67;;;;;-149.00;100.00;66333.84;5062169;28;47560;-79
2022/11/26 08:05:02;;;;;;;;;18.67;17.33;;;;;-149.00;100.00;66333.84;5062084;28;51540;-80
2022/11/26 08:07:27;;;;;;;;;22.67;20.00;;;;;-149.00;100.00;66333.84;5082744;27;45769;-79
2022/11/26 08:09:53;;;;;;;;;22.33;19.67;;;;;-149.00;100.00;66333.84;5062385;28;45427;-80
2022/11/26 08:12:18;;;;;;;;;22.67;19.67;;;;;-149.00;100.00;66333.84;5080345;28;45411;-79
2022/11/26 08:14:43;;;;;;;;;22.00;20.67;;;;;-149.00;100.00;66333.84;5078868;28;52548;-80
2022/11/26 08:17:08;;;;;;;;;16.67;15.00;;;;;-149.00;100.00;66333.84;5061345;28;45872;-80
2022/11/26 08:19:34;;;;;;;;;19.33;18.33;;;;;-149.00;100.00;66333.84;5081689;28;45332;-80
2022/11/26 08:21:59;;;;;;;;;20.33;17.67;;;;;-149.00;100.00;66333.84;5062218;28;45787;-80
2022/11/26 08:24:24;;;;;;;;;21.00;19.00;;;;;-149.00;100.00;66333.84;5080285;28;46504;-80
2022/11/26 08:26:50;;;;;;;;;21.33;20.00;;;;;-149.00;100.00;66333.84;5080144;28;45346;-80
2022/11/26 08:29:15;;;;;;;;;25.00;23.00;;;;;-149.00;100.00;66333.84;5084705;28;45153;-81
2022/11/26 08:31:42;;;;;;;;;27.67;26.00;;;;;-149.00;100.00;66333.84;5088196;28;45355;-81
2022/11/26 08:34:12;;;;;;;;;21.33;19.33;;;;;-149.00;100.00;66333.84;5095704;28;46874;-80
2022/11/26 08:36:37;;;;;;;;;21.33;20.33;;;;;-149.00;100.00;66333.84;5089790;28;45497;-81
2022/11/26 08:39:03;;;;;;;;;26.33;21.67;;;;;-149.00;100.00;66333.84;5087514;28;45757;-81
2022/11/26 08:41:28;;;;;;;;;26.67;25.00;;;;;-149.00;100.00;66333.84;5080241;28;45883;-81
2022/11/26 08:44:02;;;;;;;;;24.33;23.67;;;;;-149.00;100.00;66333.84;5064351;28;47218;-80
2022/11/26 08:46:28;;;;;;;;;23.33;21.33;;;;;-149.00;100.00;66333.84;5084181;28;45384;-80
2022/11/26 08:48:57;;;;;;;;;19.33;18.67;;;;;-149.00;100.00;66333.84;5080657;28;45286;-82
2022/11/26 08:55:38;;;;;;;;;;;;;;;;;;;;;
2022/11/26 09:10:55;;;;;;;;;18.67;17.67;;;;;-149.00;100.00;66333.84;5026036;28;45573;-81
2022/11/26 09:13:21;;;;;;;;;16.33;14.67;;;;;-149.00;100.00;66333.84;5030888;28;45556;-81
2022/11/26 09:15:48;;;;;;;;;18.33;16.67;;;;;-149.00;100.00;66333.84;5045775;28;46956;-82
2022/11/26 09:18:14;;;;;;;;;18.67;15.67;;;;;-149.00;100.00;66333.84;5045711;28;44789;-81
2022/11/26 09:20:39;;;;;;;;;24.33;22.00;;;;;-149.00;100.00;66333.84;5044494;28;45280;-81
2022/11/26 09:23:04;;;;;;;;;20.00;17.00;;;;;-149.00;100.00;66333.84;5025155;28;47292;-81
2022/11/26 09:25:29;;;;;;;;;16.33;15.33;;;;;-149.00;100.00;66333.84;5040924;28;45334;-80
2022/11/26 09:27:55;;;;;;;;;18.33;17.00;;;;;-149.00;100.00;66333.84;5033559;28;46164;-82
2022/11/26 09:30:20;;;;;;;;;19.00;16.33;;;;;-149.00;100.00;66333.84;5047963;28;45205;-80
2022/11/26 09:32:45;;;;;;;;;18.00;17.67;;;;;-149.00;100.00;66333.84;5031050;28;52783;-82
2022/11/26 09:35:11;;;;;;;;;19.00;18.00;;;;;-149.00;100.00;66333.84;5048865;28;48278;-83
2022/11/26 09:37:36;;;;;;;;;19.33;17.67;;;;;-149.00;100.00;66333.84;5034744;28;45269;-81
2022/11/26 09:40:01;;;;;;;;;16.00;13.33;;;;;-149.00;100.00;66333.84;5042267;28;45174;-82
2022/11/26 09:43:05;;;;;;;;;18.33;18.33;;;;;-149.00;100.00;66333.84;5023135;28;46900;-81
2022/11/26 09:45:36;;;;;;;;;21.67;18.00;;;;;-149.00;100.00;66333.84;5028186;28;45296;-82
2022/11/26 09:48:02;;;;;;;;;21.00;20.33;;;;;-149.00;100.00;66333.84;5032082;28;45415;-81
2022/11/26 10:02:18;;;;;;;;;19.33;19.33;;;;;-149.00;100.00;66333.84;4965377;28;45701;-81
2022/11/26 10:04:58;;;;;;;;;22.67;21.33;;;;;-149.00;100.00;66333.84;4933127;28;45767;-80
2022/11/26 10:12:31;;;;;;;;;21.67;20.67;;;;;-149.00;100.00;66333.84;4889584;28;45781;-82
2022/11/26 10:15:57;;;;;;;;;;;;;;;;;;;;;
2022/11/26 10:19:27;;;;;;;;;20.33;20.33;;;;;-149.00;100.00;66333.84;4809743;29;45491;-80
2022/11/26 10:22:13;;;;;;;;;18.67;18.00;;;;;-149.00;100.00;66333.84;4847194;29;45771;-80
2022/11/26 10:25:21;;;;;;;;;;;;;;;;;;;;;
2022/11/26 10:28:37;;;;;;;;;19.33;17.67;;;;;-149.00;100.00;66333.84;4843207;29;73090;-80
2022/11/26 10:38:16;;;;;;;;;23.67;21.00;;;;;-149.00;100.00;66333.84;5020499;28;45458;-82
2022/11/26 10:40:42;;;;;;;;;23.00;22.33;;;;;-149.00;100.00;66333.84;5038357;28;45696;-82
2022/11/26 10:43:07;;;;;;;;;23.00;20.33;;;;;-149.00;100.00;66333.84;5037453;28;45325;-82
2022/11/26 10:45:39;;;;;;;;;19.00;19.00;;;;;-149.00;100.00;66333.84;5031083;28;45478;-81
2022/11/26 10:48:31;;;;;;;;;22.00;20.00;;;;;-149.00;100.00;66333.84;5021876;28;46564;-80
2022/11/26 10:51:28;;;;;;;;;22.00;20.67;;;;;-149.00;100.00;66333.84;5019396;28;45437;-81
2022/11/26 10:53:56;;;;;;;;;21.67;19.00;;;;;-149.00;100.00;66333.84;5020801;28;45363;-81
2022/11/26 10:56:43;;;;;;;;;16.67;16.67;;;;;-149.00;100.00;66333.84;5020967;28;45501;-80
2022/11/26 10:59:21;;;;;;;;;21.33;20.33;;;;;-149.00;100.00;66333.84;5020741;28;45951;-80
2022/11/26 11:01:47;;;;;;;;;21.33;20.00;;;;;-149.00;100.00;66333.84;5033744;28;46016;-81
2022/11/26 11:04:25;;;;;;;;;24.33;22.33;;;;;-149.00;100.00;66333.84;5024491;28;45408;-81
2022/11/26 11:06:50;;;;;;;;;20.00;19.33;;;;;-149.00;100.00;66333.84;5027992;28;45454;-83
2022/11/26 11:09:41;;;;;;;;;23.00;20.00;;;;;-149.00;100.00;66333.84;5023717;28;48294;-82
2022/11/26 11:12:07;;;;;;;;;19.00;19.00;;;;;-149.00;100.00;66333.84;5011586;28;45826;-81
2022/11/26 11:14:32;;;;;;;;;21.00;21.00;;;;;-149.00;100.00;66333.84;5042120;28;45324;-81
2022/11/26 11:16:57;;;;;;;;;20.00;15.67;;;;;-149.00;100.00;66333.84;5042472;28;45478;-82
2022/11/26 11:19:25;;;;;;;;;14.33;14.33;;;;;-149.00;100.00;66333.84;5042881;28;45479;-81
2022/11/26 11:21:50;;;;;;;;;19.00;18.00;;;;;-149.00;100.00;66333.84;5042370;28;45315;-80
2022/11/26 11:24:20;;;;;;;;;12.33;12.33;;;;;-149.00;100.00;66333.84;5035867;28;45401;-82
2022/11/26 11:26:48;;;;;;;;;15.67;15.67;;;;;-149.00;100.00;66333.84;5032215;28;45484;-81
2022/11/26 11:29:40;;;;;;;;;17.00;16.67;;;;;-149.00;100.00;66333.84;5057410;28;48184;-83
2022/11/26 11:32:38;;;;;;;;;20.33;19.33;;;;;-149.00;100.00;66333.84;5029938;28;45280;-81
2022/11/26 11:35:19;;;;;;;;;16.67;15.00;;;;;-149.00;100.00;66333.84;5040569;28;45523;-82
2022/11/26 11:37:53;;;;;;;;;20.00;16.33;;;;;-149.00;100.00;66333.84;5030875;28;45415;-81
2022/11/26 11:40:26;;;;;;;;;18.33;17.33;;;;;-149.00;100.00;66333.84;5036772;28;47376;-81
2022/11/26 11:43:14;;;;;;;;;17.33;17.33;;;;;-149.00;100.00;66333.84;5041142;28;45257;-81
2022/11/26 11:45:47;;;;;;;;;19.33;19.00;;;;;-149.00;100.00;66333.84;5043462;28;45370;-79
2022/11/26 11:48:27;;;;;;;;;19.33;17.33;;;;;-149.00;100.00;66333.84;5027198;28;45408;-82